Time;durP1;ratioP1;P1;durP2;ratioP2;P2;SDS_P1;SDS_P2;PMS_P1;PMS_P2;Temp;Humidity;BMP_temperature;BMP_pressure;BME280_temperature;BME280_humidity;BME280_pressure;Samples;Min_cycle;Max_cycle;Signal;HPM_P1;HPM_P2
2022/11/09 00:01:32;;;;;;;5.90;2.90;;;13.50;99.90;;;;;;7389402;19;20554;-78
2022/11/09 00:04:00;;;;;;;3.55;2.80;;;13.40;99.90;;;;;;7389202;19;20142;-78
2022/11/09 00:06:27;;;;;;;3.60;2.80;;;13.30;99.90;;;;;;7389314;19;20142;-77
2022/11/09 00:08:53;;;;;;;3.63;2.92;;;13.30;99.90;;;;;;7387742;19;20183;-79
2022/11/09 00:11:20;;;;;;;5.90;3.20;;;13.40;99.90;;;;;;7386017;19;20134;-79
2022/11/09 00:13:46;;;;;;;5.43;3.70;;;13.50;99.90;;;;;;7390263;19;20249;-78
2022/11/09 00:16:15;;;;;;;7.88;4.15;;;13.60;99.90;;;;;;7389948;19;20150;-77
2022/11/09 00:18:46;;;;;;;5.45;3.70;;;13.50;99.90;;;;;;7386925;19;20146;-78
2022/11/09 00:21:22;;;;;;;5.83;3.23;;;13.50;99.90;;;;;;7388194;19;20154;-78
2022/11/09 00:23:49;;;;;;;5.43;3.28;;;13.40;99.90;;;;;;7385232;19;20162;-78
2022/11/09 00:26:16;;;;;;;5.27;3.23;;;13.50;99.90;;;;;;7390214;19;20226;-77
2022/11/09 00:28:42;;;;;;;5.07;3.72;;;13.50;99.90;;;;;;7387848;19;20158;-78
2022/11/09 00:31:13;;;;;;;8.33;4.13;;;13.50;99.90;;;;;;7390215;19;20607;-77
2022/11/09 00:33:39;;;;;;;7.40;4.10;;;13.50;99.90;;;;;;7386818;19;20139;-78
2022/11/09 00:36:09;;;;;;;5.90;3.40;;;13.40;99.90;;;;;;7387547;19;20163;-78
2022/11/09 00:38:37;;;;;;;6.00;3.35;;;13.40;99.90;;;;;;7387090;19;20143;-77
2022/11/09 00:41:04;;;;;;;4.97;3.27;;;13.30;99.90;;;;;;7390043;19;20158;-77
2022/11/09 00:43:29;;;;;;;7.35;3.88;;;13.20;99.90;;;;;;7391196;19;20163;-78
2022/11/09 00:45:56;;;;;;;5.13;3.50;;;13.10;99.90;;;;;;7386939;19;20151;-78
2022/11/09 00:48:21;;;;;;;5.10;3.90;;;13.30;99.90;;;;;;7387121;19;20139;-77
2022/11/09 00:50:55;;;;;;;6.32;4.20;;;13.30;99.90;;;;;;7387365;19;20585;-78
2022/11/09 00:53:22;;;;;;;3.70;2.80;;;13.30;99.90;;;;;;7388068;19;20151;-78
2022/11/09 00:56:04;;;;;;;4.25;2.67;;;13.10;99.90;;;;;;7388783;19;20142;-78
2022/11/09 00:58:32;;;;;;;7.23;3.30;;;13.20;99.90;;;;;;7384463;19;20154;-78
2022/11/09 01:01:03;;;;;;;3.47;2.77;;;13.20;99.90;;;;;;7386013;19;20528;-78
2022/11/09 01:03:29;;;;;;;3.83;2.85;;;13.10;99.90;;;;;;7387120;19;20147;-77
2022/11/09 01:05:58;;;;;;;4.45;2.78;;;13.10;99.90;;;;;;7387371;19;20499;-78
2022/11/09 01:08:24;;;;;;;4.03;2.50;;;13.00;99.90;;;;;;7387301;19;20142;-78
2022/11/09 01:10:50;;;;;;;4.93;2.78;;;13.10;99.90;;;;;;7383215;19;20224;-78
2022/11/09 01:13:17;;;;;;;4.28;2.75;;;13.20;99.90;;;;;;7387012;19;20142;-79
2022/11/09 01:15:47;;;;;;;4.73;2.53;;;13.30;99.90;;;;;;7388547;19;20135;-78
2022/11/09 01:18:14;;;;;;;4.18;2.97;;;13.20;99.90;;;;;;7386428;19;20598;-78
2022/11/09 01:20:47;;;;;;;4.50;2.30;;;13.40;99.90;;;;;;7389212;19;20163;-78
2022/11/09 01:23:14;;;;;;;2.40;2.20;;;13.30;99.90;;;;;;7387456;19;20568;-78
2022/11/09 01:25:40;;;;;;;3.60;2.30;;;13.20;99.90;;;;;;7388196;19;20138;-79
2022/11/09 01:28:07;;;;;;;3.42;1.65;;;13.30;99.90;;;;;;7378583;19;20162;-78
2022/11/09 01:30:38;;;;;;;3.30;2.42;;;13.10;99.90;;;;;;7387369;19;20135;-78
2022/11/09 01:33:06;;;;;;;5.60;2.30;;;13.10;99.90;;;;;;7389752;19;20215;-77
2022/11/09 01:35:33;;;;;;;2.42;1.92;;;13.00;99.90;;;;;;7386589;19;20174;-76
2022/11/09 01:37:59;;;;;;;3.00;2.28;;;13.00;99.90;;;;;;7387872;19;20162;-77
2022/11/09 01:40:27;;;;;;;4.22;2.80;;;13.10;99.90;;;;;;7390507;19;20150;-78
2022/11/09 01:42:52;;;;;;;6.38;3.08;;;13.20;99.90;;;;;;7386629;19;20163;-79
2022/11/09 01:45:18;;;;;;;6.70;3.28;;;13.40;99.90;;;;;;7388398;19;20154;-78
2022/11/09 01:47:47;;;;;;;5.53;2.97;;;13.50;99.90;;;;;;7386708;19;20151;-79
2022/11/09 01:50:15;;;;;;;5.88;3.42;;;13.60;99.90;;;;;;7387508;19;20165;-76
2022/11/09 01:52:46;;;;;;;7.57;3.23;;;13.50;99.90;;;;;;7388852;19;20164;-79
2022/11/09 01:55:20;;;;;;;6.40;3.23;;;13.50;99.90;;;;;;7387249;19;20142;-76
2022/11/09 01:57:50;;;;;;;4.20;3.07;;;13.40;99.90;;;;;;7384773;19;20165;-79
2022/11/09 02:00:17;;;;;;;4.75;3.05;;;13.40;99.90;;;;;;7387150;19;20147;-78
2022/11/09 02:02:54;;;;;;;4.43;3.07;;;13.30;99.90;;;;;;7386706;19;20184;-79
2022/11/09 02:05:23;;;;;;;5.23;2.57;;;13.30;99.90;;;;;;7386617;19;20178;-78
2022/11/09 02:07:49;;;;;;;4.47;3.00;;;13.30;99.90;;;;;;7384831;19;20206;-79
2022/11/09 02:10:21;;;;;;;4.90;2.50;;;13.30;99.90;;;;;;7384123;19;20183;-78
2022/11/09 02:12:47;;;;;;;3.97;2.20;;;13.20;99.90;;;;;;7384499;19;20158;-79
2022/11/09 02:15:14;;;;;;;3.63;2.20;;;13.20;99.90;;;;;;7386485;19;20162;-77
2022/11/09 02:17:41;;;;;;;3.50;2.13;;;13.20;99.90;;;;;;7385601;19;20141;-79
2022/11/09 02:20:14;;;;;;;4.20;2.42;;;13.10;99.90;;;;;;7386274;19;20154;-79
2022/11/09 02:22:41;;;;;;;3.40;2.22;;;13.10;99.90;;;;;;7391754;19;20158;-78
2022/11/09 02:25:11;;;;;;;3.75;2.35;;;13.10;99.90;;;;;;7394939;19;20611;-79
2022/11/09 02:27:38;;;;;;;2.70;1.90;;;13.20;99.90;;;;;;7390187;19;20223;-78
2022/11/09 02:30:04;;;;;;;2.83;1.98;;;13.10;99.90;;;;;;7391403;19;20181;-78
2022/11/09 02:32:30;;;;;;;2.90;2.05;;;13.30;99.90;;;;;;7391716;19;20604;-78
2022/11/09 02:34:56;;;;;;;4.38;1.67;;;13.30;99.90;;;;;;7391779;19;20188;-76
2022/11/09 02:37:38;;;;;;;3.30;1.90;;;13.30;99.90;;;;;;7389113;19;20230;-78
2022/11/09 02:40:11;;;;;;;3.83;2.58;;;13.30;99.90;;;;;;7393706;19;20130;-78
2022/11/09 02:42:37;;;;;;;6.40;2.83;;;13.60;99.90;;;;;;7392668;19;20190;-78
2022/11/09 02:45:04;;;;;;;7.10;3.13;;;13.70;99.90;;;;;;7394266;19;20209;-78
2022/11/09 02:47:29;;;;;;;5.63;3.43;;;13.70;99.90;;;;;;7392335;19;20488;-79
2022/11/09 02:49:56;;;;;;;4.30;2.83;;;13.30;99.90;;;;;;7389391;19;20131;-78
2022/11/09 02:52:22;;;;;;;4.55;2.80;;;13.00;99.90;;;;;;7390639;19;20131;-80
2022/11/09 02:54:48;;;;;;;4.10;2.95;;;12.90;99.90;;;;;;7390000;19;20488;-78
2022/11/09 02:57:14;;;;;;;7.43;3.85;;;13.20;99.90;;;;;;7388052;19;20182;-78
2022/11/09 02:59:40;;;;;;;6.13;3.10;;;13.50;99.90;;;;;;7388979;19;20138;-78
2022/11/09 03:02:05;;;;;;;4.20;2.97;;;13.60;99.90;;;;;;7386384;19;20153;-79
2022/11/09 03:04:31;;;;;;;5.70;3.78;;;13.50;99.90;;;;;;7392890;19;20194;-78
2022/11/09 03:06:57;;;;;;;6.50;3.20;;;13.50;99.90;;;;;;7391535;19;20156;-78
2022/11/09 03:09:26;;;;;;;5.55;3.25;;;13.20;99.90;;;;;;7391771;19;20588;-77
2022/11/09 03:11:51;;;;;;;6.53;3.13;;;13.10;99.90;;;;;;7391651;19;20138;-78
2022/11/09 03:14:17;;;;;;;5.30;2.60;;;13.10;99.90;;;;;;7381212;19;20664;-77
2022/11/09 03:16:43;;;;;;;3.60;2.00;;;13.20;99.90;;;;;;7389667;19;20151;-77
2022/11/09 03:19:09;;;;;;;2.53;1.75;;;13.30;99.90;;;;;;7388699;19;20151;-78
2022/11/09 03:21:35;;;;;;;3.22;2.22;;;13.50;99.90;;;;;;7393046;19;20135;-78
2022/11/09 03:24:00;;;;;;;4.78;2.40;;;13.40;99.90;;;;;;7391053;19;20880;-77
2022/11/09 03:26:26;;;;;;;2.90;1.70;;;13.50;99.90;;;;;;7393467;19;20134;-78
2022/11/09 03:28:52;;;;;;;2.92;2.22;;;13.50;99.90;;;;;;7390667;19;20150;-79
2022/11/09 03:31:18;;;;;;;2.70;1.55;;;13.40;99.90;;;;;;7390211;19;20491;-77
2022/11/09 03:33:43;;;;;;;3.20;1.98;;;13.40;99.90;;;;;;7390628;19;20135;-77
2022/11/09 03:36:09;;;;;;;2.15;1.65;;;13.40;99.90;;;;;;7390943;19;20139;-77
2022/11/09 03:38:35;;;;;;;2.72;1.88;;;13.30;99.90;;;;;;7390025;19;20152;-74
2022/11/09 03:41:01;;;;;;;2.22;1.85;;;13.20;99.90;;;;;;7392330;19;20568;-75
2022/11/09 03:43:28;;;;;;;1.92;1.60;;;13.20;99.90;;;;;;7394507;19;20131;-74
2022/11/09 03:45:55;;;;;;;2.47;1.85;;;13.20;99.90;;;;;;7394162;19;20539;-74
2022/11/09 03:48:21;;;;;;;4.15;2.25;;;13.30;99.90;;;;;;7395736;19;20238;-75
2022/11/09 03:50:47;;;;;;;2.83;1.90;;;13.40;99.90;;;;;;7394854;19;20147;-74
2022/11/09 03:53:13;;;;;;;3.77;1.93;;;13.40;99.90;;;;;;7390462;19;20153;-75
2022/11/09 03:55:39;;;;;;;2.40;2.05;;;13.50;99.90;;;;;;7386414;19;20147;-75
2022/11/09 03:58:06;;;;;;;2.33;1.75;;;13.30;99.90;;;;;;7387137;19;20146;-76
2022/11/09 04:00:32;;;;;;;3.08;2.00;;;13.20;99.90;;;;;;7390320;19;20147;-75
2022/11/09 04:02:58;;;;;;;3.13;1.92;;;13.30;99.90;;;;;;7389094;19;20158;-74
2022/11/09 04:05:25;;;;;;;2.33;1.98;;;13.40;99.90;;;;;;7390709;19;20517;-73
2022/11/09 04:07:53;;;;;;;3.67;2.30;;;13.60;99.90;;;;;;7389731;19;20140;-75
2022/11/09 04:10:20;;;;;;;3.22;2.28;;;13.50;99.90;;;;;;7389249;19;20727;-75
2022/11/09 04:12:46;;;;;;;4.03;2.20;;;13.50;99.90;;;;;;7388532;19;20146;-75
2022/11/09 04:15:12;;;;;;;2.92;1.98;;;13.30;99.90;;;;;;7388202;19;20573;-74
2022/11/09 04:17:38;;;;;;;4.22;2.08;;;12.90;99.90;;;;;;7387680;19;20516;-75
2022/11/09 04:20:05;;;;;;;3.13;2.35;;;12.60;99.90;;;;;;7387934;19;20157;-75
2022/11/09 04:22:31;;;;;;;2.95;2.40;;;12.60;99.90;;;;;;7388566;19;20620;-74
2022/11/09 04:24:57;;;;;;;3.58;1.88;;;12.80;99.90;;;;;;7387475;19;20142;-75
2022/11/09 04:27:23;;;;;;;2.88;1.80;;;12.90;99.90;;;;;;7387405;19;20135;-74
2022/11/09 04:29:49;;;;;;;4.68;1.73;;;12.80;99.90;;;;;;7387340;19;20146;-75
2022/11/09 04:32:14;;;;;;;2.70;2.03;;;12.70;99.90;;;;;;7386848;19;20138;-75
2022/11/09 04:34:40;;;;;;;3.13;2.20;;;12.80;99.90;;;;;;7386753;19;20142;-75
2022/11/09 04:37:07;;;;;;;4.28;2.53;;;12.90;99.90;;;;;;7385287;19;20140;-75
2022/11/09 04:39:33;;;;;;;3.22;2.30;;;13.00;99.90;;;;;;7384628;19;20135;-75
2022/11/09 04:41:58;;;;;;;3.42;2.05;;;13.00;99.90;;;;;;7386247;19;20227;-75
2022/11/09 04:44:24;;;;;;;3.25;2.45;;;13.00;99.90;;;;;;7386984;19;20142;-75
2022/11/09 04:46:50;;;;;;;3.65;2.33;;;12.80;99.90;;;;;;7387131;19;20888;-75
2022/11/09 04:49:16;;;;;;;4.10;2.72;;;12.70;99.90;;;;;;7387515;19;20147;-74
2022/11/09 04:51:41;;;;;;;3.15;2.47;;;12.90;99.90;;;;;;7384217;19;20137;-75
2022/11/09 04:54:07;;;;;;;5.50;2.97;;;13.10;99.90;;;;;;7386064;19;20132;-75
2022/11/09 04:56:33;;;;;;;4.40;3.37;;;13.20;99.90;;;;;;7385382;19;20147;-76
2022/11/09 04:58:58;;;;;;;4.60;3.23;;;13.20;99.90;;;;;;7384923;19;20731;-75
2022/11/09 05:01:24;;;;;;;5.63;3.20;;;13.30;99.90;;;;;;7386516;19;20150;-75
2022/11/09 05:03:50;;;;;;;5.70;3.87;;;13.20;99.90;;;;;;7387393;19;20218;-75
2022/11/09 05:06:31;;;;;;;4.13;2.95;;;13.10;99.90;;;;;;7387368;19;20138;-75
2022/11/09 05:08:58;;;;;;;4.70;3.40;;;13.10;99.90;;;;;;7387846;19;20142;-76
2022/11/09 05:11:24;;;;;;;6.80;3.50;;;13.20;99.90;;;;;;7386321;19;20158;-75
2022/11/09 05:13:51;;;;;;;5.50;3.95;;;13.20;99.90;;;;;;7389224;19;20127;-74
2022/11/09 05:16:17;;;;;;;9.07;3.97;;;13.20;99.90;;;;;;7388443;19;20793;-75
2022/11/09 05:18:43;;;;;;;8.37;4.90;;;13.30;99.90;;;;;;7387737;19;20155;-75
2022/11/09 05:21:09;;;;;;;8.20;4.77;;;13.20;99.90;;;;;;7388237;19;20848;-75
2022/11/09 05:26:19;;;;;;;6.27;4.50;;;13.00;99.90;;;;;;7387121;19;20130;-76
2022/11/09 05:28:44;;;;;;;6.07;4.75;;;12.80;99.90;;;;;;7386828;19;20624;-75
2022/11/09 05:31:10;;;;;;;9.27;5.28;;;12.90;99.90;;;;;;7387221;19;20588;-76
2022/11/09 05:33:36;;;;;;;8.47;4.70;;;13.00;99.90;;;;;;7386866;19;20135;-76
2022/11/09 05:36:02;;;;;;;5.95;4.40;;;13.10;99.90;;;;;;7388257;19;20158;-75
2022/11/09 05:38:27;;;;;;;6.67;3.77;;;13.10;99.90;;;;;;7386560;19;20786;-74
2022/11/09 05:40:53;;;;;;;5.83;3.53;;;13.00;99.90;;;;;;7387618;19;20138;-74
2022/11/09 05:43:20;;;;;;;4.97;3.57;;;12.80;99.90;;;;;;7387840;19;20695;-76
2022/11/09 05:45:46;;;;;;;4.70;3.40;;;12.80;99.90;;;;;;7386904;19;20496;-76
2022/11/09 05:48:14;;;;;;;4.85;3.22;;;12.70;99.90;;;;;;7386767;19;20154;-76
2022/11/09 05:50:41;;;;;;;5.23;3.57;;;12.60;99.90;;;;;;7389034;19;20161;-75
2022/11/09 05:53:07;;;;;;;4.37;3.10;;;12.60;99.90;;;;;;7387542;19;20134;-75
2022/11/09 05:55:33;;;;;;;4.20;3.43;;;12.70;99.90;;;;;;7388598;19;20135;-75
2022/11/09 05:57:58;;;;;;;4.60;3.23;;;12.60;99.90;;;;;;7389526;19;20182;-76
2022/11/09 06:00:24;;;;;;;5.90;3.25;;;12.40;99.90;;;;;;7393202;19;20130;-74
2022/11/09 06:02:50;;;;;;;6.20;3.40;;;12.40;99.90;;;;;;7391159;19;20743;-75
2022/11/09 06:05:16;;;;;;;5.00;3.78;;;12.50;99.90;;;;;;7391509;19;20635;-75
2022/11/09 06:07:42;;;;;;;5.43;3.20;;;12.60;99.90;;;;;;7394200;19;20604;-75
2022/11/09 06:10:08;;;;;;;5.30;3.30;;;12.80;99.90;;;;;;7392763;19;20217;-75
2022/11/09 06:12:34;;;;;;;5.37;3.27;;;12.70;99.90;;;;;;7392442;19;20213;-74
2022/11/09 06:15:00;;;;;;;5.25;3.47;;;13.00;99.90;;;;;;7392558;19;20155;-75
2022/11/09 06:17:26;;;;;;;6.23;3.50;;;12.90;99.90;;;;;;7391313;19;20162;-74
2022/11/09 06:19:52;;;;;;;6.60;4.50;;;13.00;99.90;;;;;;7388830;19;20143;-74
2022/11/09 06:22:17;;;;;;;5.17;3.40;;;13.00;99.90;;;;;;7392054;19;20194;-74
2022/11/09 06:24:43;;;;;;;6.87;4.17;;;13.00;99.90;;;;;;7394552;19;20139;-74
2022/11/09 06:27:09;;;;;;;7.37;3.43;;;13.10;99.90;;;;;;7393360;19;20162;-75
2022/11/09 06:29:34;;;;;;;7.33;4.63;;;13.00;99.90;;;;;;7389622;19;20139;-75
2022/11/09 06:32:00;;;;;;;6.07;4.50;;;13.10;99.90;;;;;;7391882;19;20134;-75
2022/11/09 06:34:26;;;;;;;6.50;4.23;;;13.00;99.90;;;;;;7385657;19;20600;-75
2022/11/09 06:36:52;;;;;;;5.37;3.67;;;13.10;99.90;;;;;;7394009;19;20135;-74
2022/11/09 06:39:18;;;;;;;6.80;4.50;;;13.20;99.90;;;;;;7395097;19;20134;-75
2022/11/09 06:41:43;;;;;;;5.80;4.33;;;13.30;99.90;;;;;;7391330;19;20141;-74
2022/11/09 06:44:09;;;;;;;5.53;4.40;;;13.00;99.90;;;;;;7392895;19;20139;-75
2022/11/09 06:46:35;;;;;;;7.20;4.17;;;12.90;99.90;;;;;;7393886;19;20149;-75
2022/11/09 06:49:01;;;;;;;6.93;4.50;;;12.90;99.90;;;;;;7392087;19;20150;-75
2022/11/09 06:51:26;;;;;;;7.65;4.20;;;12.90;99.90;;;;;;7391284;19;20138;-76
2022/11/09 06:53:52;;;;;;;6.37;3.67;;;13.00;99.90;;;;;;7393580;19;20142;-75
2022/11/09 06:56:18;;;;;;;7.32;4.00;;;13.00;99.90;;;;;;7394582;19;20514;-76
2022/11/09 06:58:44;;;;;;;4.73;3.83;;;13.00;99.90;;;;;;7391996;19;20163;-74
2022/11/09 07:01:15;;;;;;;6.13;3.87;;;13.00;99.90;;;;;;7389865;19;20130;-74
2022/11/09 07:03:41;;;;;;;6.20;4.03;;;13.10;99.90;;;;;;7389181;19;20497;-75
2022/11/09 07:06:09;;;;;;;7.57;4.10;;;13.00;99.90;;;;;;7387205;19;20135;-76
2022/11/09 07:08:36;;;;;;;7.78;4.30;;;13.10;99.90;;;;;;7383906;19;20139;-75
2022/11/09 07:11:07;;;;;;;6.93;4.30;;;13.10;99.90;;;;;;7387238;19;20155;-74
2022/11/09 07:13:33;;;;;;;6.30;4.10;;;13.00;99.90;;;;;;7385787;19;20258;-76
2022/11/09 07:15:59;;;;;;;7.60;4.20;;;13.20;99.90;;;;;;7388514;19;20504;-74
2022/11/09 07:18:25;;;;;;;6.17;4.30;;;13.10;99.90;;;;;;7387359;19;20142;-73
2022/11/09 07:20:50;;;;;;;7.60;4.90;;;13.00;99.90;;;;;;7389688;19;20147;-75
2022/11/09 07:23:16;;;;;;;7.63;3.87;;;13.20;99.90;;;;;;7390331;19;20138;-75
2022/11/09 07:25:42;;;;;;;6.80;4.33;;;13.20;99.90;;;;;;7386134;19;20593;-76
2022/11/09 07:28:10;;;;;;;7.43;5.23;;;13.00;99.90;;;;;;7386927;19;20123;-76
2022/11/09 07:30:36;;;;;;;5.67;4.60;;;12.90;99.90;;;;;;7385123;19;20686;-78
2022/11/09 07:33:03;;;;;;;4.80;3.10;;;12.80;99.90;;;;;;7388636;19;20131;-75
2022/11/09 07:35:29;;;;;;;4.83;3.20;;;12.80;99.90;;;;;;7385323;19;20141;-76
2022/11/09 07:37:59;;;;;;;5.53;2.80;;;12.60;99.90;;;;;;7378040;19;20499;-74
2022/11/09 07:40:25;;;;;;;3.40;2.80;;;12.60;99.90;;;;;;7391118;19;20134;-76
2022/11/09 07:42:51;;;;;;;3.72;2.53;;;12.70;99.90;;;;;;7389867;19;20134;-76
2022/11/09 07:45:17;;;;;;;3.17;2.43;;;12.70;99.90;;;;;;7389154;19;20156;-75
2022/11/09 07:47:42;;;;;;;4.53;3.07;;;12.80;99.90;;;;;;7391090;19;20163;-76
2022/11/09 07:50:08;;;;;;;5.57;3.30;;;13.00;99.90;;;;;;7390162;19;20171;-76
2022/11/09 07:52:34;;;;;;;4.10;3.10;;;13.10;99.90;;;;;;7390342;19;20130;-75
2022/11/09 07:55:00;;;;;;;5.40;3.10;;;13.10;99.90;;;;;;7397879;19;20576;-77
2022/11/09 07:57:26;;;;;;;4.20;3.03;;;13.20;99.90;;;;;;7389918;19;20229;-75
2022/11/09 07:59:53;;;;;;;11.67;3.77;;;13.30;99.90;;;;;;7392986;19;20127;-77
2022/11/09 08:02:18;;;;;;;4.30;3.03;;;13.40;99.90;;;;;;7392045;19;20519;-77
2022/11/09 08:04:44;;;;;;;4.10;2.55;;;13.00;99.90;;;;;;7396329;19;20310;-75
2022/11/09 08:07:10;;;;;;;4.18;2.67;;;12.90;99.90;;;;;;7394288;19;20152;-76
2022/11/09 08:09:35;;;;;;;2.50;2.30;;;12.90;99.90;;;;;;7397135;19;20547;-77
2022/11/09 08:12:01;;;;;;;3.72;2.40;;;12.80;99.90;;;;;;7394805;19;20147;-77
2022/11/09 08:14:27;;;;;;;2.90;2.30;;;13.00;99.90;;;;;;7401059;19;20130;-76
2022/11/09 08:16:53;;;;;;;2.50;2.07;;;13.20;99.90;;;;;;7398233;19;20150;-77
2022/11/09 08:19:19;;;;;;;3.25;2.08;;;13.00;99.90;;;;;;7396370;19;20186;-76
2022/11/09 08:21:45;;;;;;;2.88;1.90;;;12.90;99.90;;;;;;7397692;19;20171;-77
2022/11/09 08:24:10;;;;;;;5.18;2.80;;;13.10;99.90;;;;;;7399295;19;20501;-76
2022/11/09 08:26:36;;;;;;;7.60;2.97;;;13.40;99.90;;;;;;7393156;19;20146;-74
2022/11/09 08:29:02;;;;;;;4.83;2.60;;;13.30;99.90;;;;;;7391008;19;20189;-76
2022/11/09 08:31:28;;;;;;;5.03;2.30;;;13.40;99.90;;;;;;7391691;19;20135;-75
2022/11/09 08:33:54;;;;;;;3.75;2.40;;;13.00;99.90;;;;;;7391585;19;20491;-76
2022/11/09 08:36:19;;;;;;;5.65;2.55;;;13.00;99.90;;;;;;7392292;19;20154;-77
2022/11/09 08:38:48;;;;;;;4.00;2.60;;;13.20;99.90;;;;;;7389862;19;20626;-76
2022/11/09 08:41:14;;;;;;;5.53;2.90;;;13.30;99.90;;;;;;7392636;19;20167;-75
2022/11/09 08:43:40;;;;;;;3.83;2.75;;;13.30;99.90;;;;;;7394308;19;20157;-73
2022/11/09 08:46:06;;;;;;;4.80;3.05;;;13.50;99.90;;;;;;7393309;19;20146;-75
2022/11/09 08:48:31;;;;;;;5.78;3.42;;;13.50;99.90;;;;;;7390092;19;20487;-75
2022/11/09 08:50:58;;;;;;;4.72;3.25;;;13.40;99.90;;;;;;7389486;19;20146;-75
2022/11/09 08:53:28;;;;;;;2.38;2.03;;;13.50;99.90;;;;;;7390112;19;20145;-75
2022/11/09 08:55:56;;;;;;;5.78;2.53;;;13.50;99.90;;;;;;7390904;19;20150;-75
2022/11/09 08:58:25;;;;;;;3.35;2.20;;;13.60;99.90;;;;;;7385900;19;20697;-75
2022/11/09 09:00:53;;;;;;;3.38;2.15;;;13.70;99.90;;;;;;7389622;19;20154;-77
2022/11/09 09:03:23;;;;;;;2.22;1.70;;;13.50;99.90;;;;;;7389593;19;20229;-75
2022/11/09 09:05:49;;;;;;;4.28;1.95;;;13.50;99.90;;;;;;7389476;19;20146;-75
2022/11/09 09:08:14;;;;;;;4.82;1.70;;;13.60;99.90;;;;;;7387794;19;20713;-75
2022/11/09 09:10:41;;;;;;;5.07;2.30;;;13.50;99.90;;;;;;7390326;19;20130;-75
2022/11/09 09:13:07;;;;;;;5.88;2.08;;;13.70;99.90;;;;;;7388618;19;20282;-75
2022/11/09 09:15:33;;;;;;;3.15;2.40;;;14.00;99.90;;;;;;7388376;19;20243;-75
2022/11/09 09:18:00;;;;;;;6.32;2.80;;;14.00;99.90;;;;;;7386259;19;20503;-74
2022/11/09 09:20:26;;;;;;;3.95;2.70;;;14.00;99.90;;;;;;7388332;19;20189;-75
2022/11/09 09:22:52;;;;;;;3.83;2.63;;;14.20;99.90;;;;;;7388469;19;20585;-75
2022/11/09 09:25:19;;;;;;;7.32;4.43;;;14.10;99.90;;;;;;7390274;19;20146;-75
2022/11/09 09:27:45;;;;;;;3.65;2.35;;;13.90;99.90;;;;;;7390095;19;20167;-78
2022/11/09 09:30:11;;;;;;;3.00;2.10;;;13.70;99.90;;;;;;7388724;19;20143;-77
2022/11/09 09:32:37;;;;;;;4.80;2.58;;;13.70;99.90;;;;;;7397138;19;20668;-77
2022/11/09 09:35:02;;;;;;;3.65;2.85;;;13.80;99.90;;;;;;7397115;19;20158;-76
2022/11/09 09:37:28;;;;;;;5.57;2.65;;;13.90;99.90;;;;;;7396473;19;20153;-77
2022/11/09 09:39:54;;;;;;;5.10;3.10;;;13.90;99.90;;;;;;7398573;19;20151;-76
2022/11/09 09:42:27;;;;;;;3.97;2.28;;;13.90;99.90;;;;;;7398410;19;20154;-75
2022/11/09 09:45:18;;;;;;;4.65;2.63;;;14.00;99.90;;;;;;7396001;19;20210;-76
2022/11/09 09:47:57;;;;;;;2.25;1.50;;;14.10;99.90;;;;;;7396152;19;20463;-76
2022/11/09 09:50:28;;;;;;;3.17;1.52;;;14.10;99.90;;;;;;7395538;19;20169;-75
2022/11/09 09:53:02;;;;;;;1.58;1.38;;;14.00;99.90;;;;;;7396383;19;20135;-76
2022/11/09 09:55:35;;;;;;;3.80;1.45;;;14.10;99.90;;;;;;7395110;19;20149;-76
2022/11/09 09:58:12;;;;;;;1.77;1.20;;;14.00;99.90;;;;;;7392930;19;20573;-76
2022/11/09 10:00:40;;;;;;;1.95;1.45;;;14.10;99.90;;;;;;7397642;19;20153;-76
2022/11/09 10:03:16;;;;;;;1.45;1.30;;;14.40;99.90;;;;;;7396858;19;20175;-75
2022/11/09 10:06:18;;;;;;;3.42;1.63;;;14.40;99.90;;;;;;7395650;19;20154;-76
2022/11/09 10:09:07;;;;;;;1.80;1.15;;;14.30;99.90;;;;;;7395044;19;20227;-75
2022/11/09 10:11:38;;;;;;;1.88;1.23;;;14.30;99.90;;;;;;7393839;19;20160;-75
2022/11/09 10:14:10;;;;;;;2.00;1.10;;;14.30;99.90;;;;;;7398106;19;20143;-75
2022/11/09 10:17:20;;;;;;;3.25;2.20;;;14.30;99.90;;;;;;7396378;19;20142;-76
2022/11/09 10:20:01;;;;;;;2.88;1.50;;;14.20;99.90;;;;;;7390282;19;20634;-75
2022/11/09 10:23:04;;;;;;;2.67;1.77;;;14.40;99.90;;;;;;7398569;19;20485;-76
2022/11/09 10:25:36;;;;;;;7.50;4.55;;;14.50;99.90;;;;;;7396188;19;20142;-75
2022/11/09 10:28:13;;;;;;;3.53;2.42;;;14.40;99.90;;;;;;7394607;19;20146;-75
2022/11/09 10:30:40;;;;;;;2.45;1.98;;;14.60;99.90;;;;;;7389407;19;20138;-75
2022/11/09 10:33:19;;;;;;;4.38;2.60;;;14.70;99.90;;;;;;7394188;19;20138;-74
2022/11/09 10:36:22;;;;;;;3.97;2.88;;;14.70;99.90;;;;;;7394676;19;20154;-76
2022/11/09 10:38:52;;;;;;;5.47;2.65;;;14.80;99.90;;;;;;7390405;19;20167;-76
2022/11/09 10:41:47;;;;;;;4.63;2.60;;;15.00;99.90;;;;;;7393960;19;20143;-76
2022/11/09 10:44:15;;;;;;;4.35;3.00;;;14.90;99.90;;;;;;7393366;19;20648;-76
2022/11/09 10:47:09;;;;;;;3.55;2.53;;;14.80;99.90;;;;;;7394181;19;20139;-74
2022/11/09 10:49:36;;;;;;;5.03;2.47;;;14.90;99.90;;;;;;7396000;19;20134;-75
2022/11/09 10:52:02;;;;;;;2.65;2.20;;;15.00;99.90;;;;;;7393955;19;20198;-76
2022/11/09 10:54:32;;;;;;;2.78;1.98;;;15.00;99.90;;;;;;7393083;19;20131;-75
2022/11/09 10:57:19;;;;;;;5.50;2.28;;;14.80;99.90;;;;;;7392676;19;20170;-74
2022/11/09 10:59:50;;;;;;;4.07;2.53;;;14.60;99.90;;;;;;7391532;19;20150;-73
2022/11/09 11:02:25;;;;;;;3.13;1.98;;;14.70;99.90;;;;;;7394074;19;20163;-74
2022/11/09 11:05:06;;;;;;;2.67;2.20;;;14.70;99.90;;;;;;7394470;19;20659;-74
2022/11/09 11:07:34;;;;;;;3.33;2.28;;;15.00;99.90;;;;;;7392630;19;20143;-76
2022/11/09 11:10:09;;;;;;;3.08;2.35;;;14.80;99.90;;;;;;7393308;19;20167;-76
2022/11/09 11:12:34;;;;;;;7.90;2.70;;;14.80;99.90;;;;;;7393811;19;20157;-75
2022/11/09 11:15:00;;;;;;;2.10;1.75;;;14.90;99.90;;;;;;7391778;19;20154;-76
2022/11/09 11:17:34;;;;;;;3.28;1.55;;;14.90;99.90;;;;;;7391201;19;20163;-75
2022/11/09 11:20:26;;;;;;;3.50;2.20;;;14.80;99.90;;;;;;7393138;19;20130;-76
2022/11/09 11:23:08;;;;;;;4.35;3.10;;;14.90;99.90;;;;;;7393093;19;20484;-74
2022/11/09 11:25:37;;;;;;;4.03;2.08;;;15.00;99.90;;;;;;7389912;19;20155;-76
2022/11/09 11:28:38;;;;;;;2.47;1.67;;;15.20;99.90;;;;;;7392243;19;20154;-75
2022/11/09 11:31:10;;;;;;;8.55;5.70;;;15.10;99.90;;;;;;7390899;19;20154;-76
2022/11/09 11:33:36;;;;;;;3.88;2.20;;;15.00;99.90;;;;;;7390667;19;20165;-76
2022/11/09 11:36:29;;;;;;;2.92;1.63;;;15.10;99.90;;;;;;7391497;19;20138;-76
2022/11/09 11:39:19;;;;;;;2.78;1.67;;;15.20;99.90;;;;;;7390273;19;20166;-76
2022/11/09 11:41:57;;;;;;;2.50;1.60;;;15.20;99.90;;;;;;7392841;19;20142;-76
2022/11/09 11:44:39;;;;;;;2.85;1.70;;;15.20;99.90;;;;;;7394205;19;20198;-75
2022/11/09 11:47:20;;;;;;;3.38;1.45;;;15.30;99.90;;;;;;7392175;19;20139;-76
2022/11/09 11:50:01;;;;;;;2.40;1.80;;;15.20;99.90;;;;;;7393691;19;20978;-77
2022/11/09 11:52:46;;;;;;;2.45;1.50;;;15.20;99.90;;;;;;7393181;19;20403;-77
2022/11/09 11:55:31;;;;;;;2.45;1.65;;;15.20;99.90;;;;;;7391187;19;20155;-76
2022/11/09 11:58:15;;;;;;;3.15;2.15;;;15.20;99.90;;;;;;7390285;19;20186;-76
2022/11/09 12:01:18;;;;;;;3.22;1.70;;;15.30;99.90;;;;;;7391815;19;20175;-76
2022/11/09 12:04:18;;;;;;;3.03;2.00;;;15.40;99.90;;;;;;7391618;19;20727;-76
2022/11/09 12:07:04;;;;;;;2.55;1.90;;;15.40;99.90;;;;;;7390317;19;20153;-73
2022/11/09 12:09:51;;;;;;;2.08;1.70;;;15.30;99.90;;;;;;7394156;19;20438;-73
2022/11/09 12:12:50;;;;;;;2.90;1.63;;;15.40;99.90;;;;;;7390183;19;20234;-76
2022/11/09 12:15:36;;;;;;;2.35;1.30;;;15.40;99.90;;;;;;7392073;19;20505;-72
2022/11/09 12:18:33;;;;;;;1.27;1.00;;;15.30;99.90;;;;;;7388676;19;20143;-74
2022/11/09 12:21:11;;;;;;;2.85;1.65;;;15.30;99.90;;;;;;7386970;19;20162;-74
2022/11/09 12:24:10;;;;;;;2.50;1.50;;;15.30;99.90;;;;;;7390902;19;20150;-74
2022/11/09 12:27:26;;;;;;;1.77;1.27;;;15.40;99.90;;;;;;7390665;19;20146;-74
2022/11/09 12:30:01;;;;;;;2.00;1.35;;;15.40;99.90;;;;;;7392488;19;20138;-73
2022/11/09 12:32:52;;;;;;;1.42;1.23;;;15.40;99.90;;;;;;7391478;19;20142;-75
2022/11/09 12:35:33;;;;;;;1.52;1.35;;;15.40;99.90;;;;;;7392921;19;20146;-73
2022/11/09 12:38:16;;;;;;;2.58;1.80;;;15.40;99.90;;;;;;7389936;19;20238;-74
2022/11/09 12:40:53;;;;;;;3.08;1.27;;;15.40;99.90;;;;;;7390234;19;20648;-75
2022/11/09 12:43:43;;;;;;;2.75;1.77;;;15.40;99.90;;;;;;7393012;19;20511;-74
2022/11/09 12:46:11;;;;;;;2.65;1.45;;;15.40;99.90;;;;;;7390971;19;20154;-75
2022/11/09 12:48:38;;;;;;;3.47;1.20;;;15.50;99.90;;;;;;7390855;19;20146;-74
2022/11/09 12:51:06;;;;;;;1.88;1.40;;;15.50;99.90;;;;;;7390610;19;20607;-74
2022/11/09 12:53:34;;;;;;;2.47;1.42;;;15.50;99.90;;;;;;7389253;19;20495;-74
2022/11/09 12:56:03;;;;;;;1.98;1.45;;;15.50;99.90;;;;;;7391260;19;20596;-74
2022/11/09 12:58:34;;;;;;;2.28;1.25;;;15.50;99.90;;;;;;7387870;19;20644;-72
2022/11/09 13:01:06;;;;;;;3.80;1.20;;;15.60;99.90;;;;;;7389106;19;20154;-74
2022/11/09 13:03:38;;;;;;;4.63;1.88;;;15.70;99.90;;;;;;7393288;19;20139;-75
2022/11/09 13:06:15;;;;;;;2.80;1.30;;;15.60;99.90;;;;;;7388917;19;20146;-75